Woodgate, New York
Current Conditions -  °F | °C
As of 11:20 PM on Thursday 27 Nov 2014 (Local Time) from KRME Reporting Station
Light Snow Light Snow  
Wind Chill: 28°   Ceiling: 1500
Heat Index: 28°   Visibility: 6mi
Dew Point: 26°   Wind: 3mph
Humidity: 92%   Direction: 270°W
Pressure: 30.06"   Gusts: NA
Location:  43.52°N, 75.16°W
Report Text: KRME 280420Z AUTO 27003KT 6SM -SN BR SCT006 OVC015 M02/M03 A3006 RMK AO2 SNB20 P0000 T10221033
Loading
Personal Weather Stations






























Interactive Weather Map New forecast layout! Learn more

10-Day Weather Forecast

Advertisements
Track Severe Weather on mobile